Time;durP1;ratioP1;P1;durP2;ratioP2;P2;SDS_P1;SDS_P2;PMS_P1;PMS_P2;Temp;Humidity;BMP_temperature;BMP_pressure;BME280_temperature;BME280_humidity;BME280_pressure;Samples;Min_cycle;Max_cycle;Signal;HPM_P1;HPM_P2
2023/07/05 00:01:02;;;;;;;3.93;2.20;;;26.90;46.40;;;;;;4991782;28;20448;-76
2023/07/05 00:03:34;;;;;;;5.37;2.17;;;26.90;46.40;;;;;;5003056;28;20414;-78
2023/07/05 00:06:05;;;;;;;3.57;2.40;;;26.90;46.60;;;;;;4996996;28;20963;-77
2023/07/05 00:08:33;;;;;;;4.73;2.60;;;26.90;46.60;;;;;;4996009;28;20467;-76
2023/07/05 00:11:03;;;;;;;5.10;2.33;;;26.90;46.50;;;;;;5000090;28;20450;-77
2023/07/05 00:13:30;;;;;;;2.33;2.10;;;26.90;46.80;;;;;;5000260;28;20473;-77
2023/07/05 00:15:59;;;;;;;3.00;2.43;;;26.90;46.80;;;;;;4984800;28;20461;-77
2023/07/05 00:18:27;;;;;;;3.23;2.53;;;26.90;46.90;;;;;;4984255;28;20971;-77
2023/07/05 00:21:00;;;;;;;4.40;2.37;;;26.90;46.90;;;;;;5000365;28;20433;-77
2023/07/05 00:23:28;;;;;;;8.00;2.40;;;26.90;46.80;;;;;;4985032;28;20473;-77
2023/07/05 00:25:56;;;;;;;2.30;2.07;;;26.90;47.00;;;;;;4992351;28;20926;-76
2023/07/05 00:28:24;;;;;;;3.17;2.17;;;26.90;47.00;;;;;;4992433;28;20498;-77
2023/07/05 00:30:52;;;;;;;3.37;2.80;;;26.90;47.10;;;;;;4992350;28;20453;-77
2023/07/05 00:33:20;;;;;;;3.90;2.77;;;26.80;47.10;;;;;;4992429;28;20454;-77
2023/07/05 00:35:49;;;;;;;2.93;2.73;;;26.80;47.10;;;;;;4987052;28;20492;-76
2023/07/05 00:38:18;;;;;;;15.90;2.80;;;26.80;47.30;;;;;;4973135;28;20484;-76
2023/07/05 00:40:46;;;;;;;3.37;2.63;;;26.90;47.20;;;;;;4990152;28;20517;-76
2023/07/05 00:43:14;;;;;;;3.10;2.60;;;26.80;47.30;;;;;;4991884;28;20475;-76
2023/07/05 00:45:50;;;;;;;3.90;2.43;;;26.90;47.40;;;;;;4983536;28;20442;-77
2023/07/05 00:48:19;;;;;;;2.50;2.30;;;26.90;47.40;;;;;;4978869;28;20448;-77
2023/07/05 00:50:49;;;;;;;3.70;2.80;;;26.90;47.50;;;;;;4974852;28;20486;-75
2023/07/05 00:53:18;;;;;;;3.63;2.53;;;26.80;47.90;;;;;;4986006;28;20502;-74
2023/07/05 00:55:48;;;;;;;2.83;2.50;;;26.90;47.40;;;;;;4992297;28;20474;-75
2023/07/05 00:58:16;;;;;;;2.10;2.00;;;26.80;47.30;;;;;;4986381;28;20486;-75
2023/07/05 01:00:44;;;;;;;2.50;2.30;;;26.90;47.50;;;;;;4992267;28;20512;-74
2023/07/05 01:03:13;;;;;;;2.97;2.47;;;26.90;47.40;;;;;;4992295;28;20532;-74
2023/07/05 01:05:41;;;;;;;2.40;2.20;;;26.90;47.50;;;;;;4993416;28;20472;-74
2023/07/05 01:08:10;;;;;;;5.90;2.90;;;26.90;47.50;;;;;;4995892;28;20465;-75
2023/07/05 01:10:39;;;;;;;2.37;2.23;;;26.80;47.50;;;;;;4995141;28;20440;-75
2023/07/05 01:13:10;;;;;;;4.07;2.63;;;26.80;47.60;;;;;;4975701;28;20437;-74
2023/07/05 01:15:42;;;;;;;2.70;2.50;;;26.80;47.80;;;;;;4976147;28;20560;-74
2023/07/05 01:18:16;;;;;;;2.70;2.50;;;26.80;47.90;;;;;;4988333;28;20404;-74
2023/07/05 01:20:46;;;;;;;3.60;2.33;;;26.80;47.70;;;;;;4995824;28;20414;-74
2023/07/05 01:23:34;;;;;;;2.63;2.43;;;26.80;47.90;;;;;;4995555;28;20462;-75
2023/07/05 01:26:25;;;;;;;2.63;2.43;;;26.80;47.80;;;;;;5007860;28;20523;-75
2023/07/05 01:29:06;;;;;;;2.97;2.50;;;26.80;48.00;;;;;;5013429;28;20442;-75
2023/07/05 01:39:10;;;;;;;4.00;3.23;;;26.70;48.10;;;;;;4986524;28;20456;-75
2023/07/05 01:41:38;;;;;;;4.23;3.30;;;26.70;48.20;;;;;;4993967;28;20461;-75
2023/07/05 01:44:07;;;;;;;4.57;3.10;;;26.70;48.10;;;;;;4988962;28;20451;-76
2023/07/05 01:46:36;;;;;;;4.50;4.00;;;26.70;48.20;;;;;;4989566;28;20484;-76
2023/07/05 01:49:16;;;;;;;4.53;3.90;;;26.70;48.20;;;;;;4993897;28;20408;-76
2023/07/05 01:51:46;;;;;;;4.90;3.83;;;26.70;48.20;;;;;;4998299;28;20487;-76
2023/07/05 01:54:21;;;;;;;3.80;3.40;;;26.70;48.10;;;;;;4986674;28;20537;-75
2023/07/05 01:56:51;;;;;;;10.33;4.37;;;26.70;48.20;;;;;;4993643;28;20532;-75
2023/07/05 01:59:22;;;;;;;4.70;3.93;;;26.70;48.00;;;;;;4993833;28;20442;-76
2023/07/05 02:01:50;;;;;;;5.30;4.80;;;26.70;48.20;;;;;;4992668;28;20458;-76
2023/07/05 02:04:21;;;;;;;5.13;4.17;;;26.70;48.10;;;;;;4987080;28;20552;-76
2023/07/05 02:06:50;;;;;;;6.60;4.70;;;26.70;48.10;;;;;;4993476;28;20432;-76
2023/07/05 02:09:19;;;;;;;7.10;4.73;;;26.70;48.30;;;;;;4984636;28;20500;-76
2023/07/05 02:11:47;;;;;;;5.80;5.03;;;26.70;48.40;;;;;;4986283;28;20552;-75
2023/07/05 02:14:15;;;;;;;5.40;4.90;;;26.70;48.40;;;;;;4993469;28;20500;-75
2023/07/05 02:16:43;;;;;;;6.70;5.67;;;26.70;48.40;;;;;;4985840;28;20949;-75
2023/07/05 02:19:11;;;;;;;6.90;5.23;;;26.70;48.30;;;;;;4991987;28;20458;-75
2023/07/05 02:21:39;;;;;;;8.27;5.30;;;26.70;48.30;;;;;;4999189;28;20408;-76
2023/07/05 02:24:07;;;;;;;6.57;5.47;;;26.70;48.30;;;;;;4996452;28;20411;-75
2023/07/05 02:26:36;;;;;;;9.97;5.63;;;26.60;48.50;;;;;;4995010;28;20560;-76
2023/07/05 02:29:04;;;;;;;7.00;5.57;;;26.60;48.60;;;;;;4989915;28;20428;-75
2023/07/05 02:31:32;;;;;;;10.77;6.07;;;26.60;48.40;;;;;;4993055;28;20447;-76
2023/07/05 02:34:00;;;;;;;8.80;6.70;;;26.60;48.50;;;;;;5001031;28;20499;-76
2023/07/05 02:36:27;;;;;;;7.83;6.60;;;26.60;48.60;;;;;;5000838;28;20515;-76
2023/07/05 02:38:55;;;;;;;8.27;6.10;;;26.60;48.60;;;;;;5000996;28;20867;-76
2023/07/05 02:41:23;;;;;;;8.63;6.97;;;26.50;48.60;;;;;;5001566;28;20477;-76
2023/07/05 02:43:53;;;;;;;9.40;6.17;;;26.50;48.80;;;;;;4987998;28;20515;-76
2023/07/05 02:46:23;;;;;;;8.10;6.43;;;26.50;48.70;;;;;;5003460;28;20918;-76
2023/07/05 02:48:51;;;;;;;8.37;6.33;;;26.50;49.00;;;;;;4995861;28;20416;-76
2023/07/05 02:51:19;;;;;;;8.33;6.03;;;26.50;48.90;;;;;;5007656;28;20477;-76
2023/07/05 02:53:48;;;;;;;10.07;6.90;;;26.50;49.00;;;;;;5001114;28;20415;-76
2023/07/05 02:56:16;;;;;;;8.20;6.70;;;26.50;49.10;;;;;;4995098;28;20478;-75
2023/07/05 02:58:44;;;;;;;13.67;7.43;;;26.40;49.20;;;;;;5000675;28;20444;-76
2023/07/05 03:01:13;;;;;;;9.53;7.00;;;26.40;49.20;;;;;;5003986;28;20875;-76
2023/07/05 03:03:41;;;;;;;8.00;7.20;;;26.50;49.20;;;;;;4990820;28;20438;-76
2023/07/05 03:06:09;;;;;;;11.77;8.03;;;26.50;49.30;;;;;;4992123;28;20473;-76
2023/07/05 03:08:37;;;;;;;9.10;7.07;;;26.40;49.40;;;;;;4992363;28;20482;-76
2023/07/05 03:11:05;;;;;;;16.67;7.50;;;26.40;49.20;;;;;;4991875;28;20556;-76
2023/07/05 03:13:33;;;;;;;9.00;7.70;;;26.40;49.40;;;;;;4992058;28;20412;-75
2023/07/05 03:16:02;;;;;;;9.97;7.40;;;26.40;49.50;;;;;;5000407;28;20478;-76
2023/07/05 03:18:32;;;;;;;10.77;8.17;;;26.40;49.50;;;;;;4996857;28;20427;-76
2023/07/05 03:21:00;;;;;;;8.00;7.07;;;26.40;49.60;;;;;;5003539;28;20440;-76
2023/07/05 03:23:28;;;;;;;11.10;7.70;;;26.40;49.60;;;;;;4999187;28;20461;-76
2023/07/05 03:25:56;;;;;;;8.40;7.27;;;26.40;49.60;;;;;;4991724;28;20482;-75
2023/07/05 03:28:25;;;;;;;11.73;8.70;;;26.40;49.60;;;;;;4991252;28;20511;-76
2023/07/05 03:30:55;;;;;;;10.10;7.40;;;26.40;49.80;;;;;;5000256;28;20568;-75
2023/07/05 03:33:23;;;;;;;10.93;7.70;;;26.30;49.80;;;;;;5007455;28;20499;-75
2023/07/05 03:35:59;;;;;;;11.27;8.10;;;26.30;49.70;;;;;;4984093;28;20491;-76
2023/07/05 03:38:28;;;;;;;12.60;8.70;;;26.30;49.80;;;;;;4990874;28;20483;-76
2023/07/05 03:40:59;;;;;;;16.13;8.27;;;26.30;49.80;;;;;;4991802;28;20430;-76
2023/07/05 03:43:28;;;;;;;9.87;8.40;;;26.30;49.80;;;;;;4991637;28;20432;-76
2023/07/05 03:45:56;;;;;;;8.80;7.63;;;26.30;49.90;;;;;;4992083;28;20469;-76
2023/07/05 03:48:24;;;;;;;9.10;8.20;;;26.30;49.90;;;;;;4991538;28;20473;-76
2023/07/05 03:50:55;;;;;;;11.83;8.53;;;26.30;49.80;;;;;;4983676;28;20532;-76
2023/07/05 03:53:25;;;;;;;14.40;8.80;;;26.30;50.00;;;;;;4981078;28;20483;-76
2023/07/05 03:55:53;;;;;;;11.27;8.30;;;26.30;49.80;;;;;;4991656;28;20432;-76
2023/07/05 03:58:21;;;;;;;13.50;9.13;;;26.30;50.00;;;;;;4999378;28;20496;-75
2023/07/05 04:00:49;;;;;;;10.00;8.30;;;26.20;50.00;;;;;;4991993;28;20432;-76
2023/07/05 04:03:18;;;;;;;11.53;8.43;;;26.30;50.00;;;;;;4991830;28;20441;-75
2023/07/05 04:05:46;;;;;;;12.30;8.97;;;26.30;50.20;;;;;;4991469;28;20465;-75
2023/07/05 04:08:14;;;;;;;10.47;8.27;;;26.30;50.00;;;;;;4991733;28;20536;-75
2023/07/05 04:10:49;;;;;;;13.87;9.03;;;26.30;50.40;;;;;;4989740;28;20483;-75
2023/07/05 04:13:17;;;;;;;9.80;8.20;;;26.30;49.90;;;;;;4990469;28;20492;-75
2023/07/05 04:15:45;;;;;;;10.23;8.37;;;26.30;50.00;;;;;;4991736;28;20439;-75
2023/07/05 04:18:13;;;;;;;10.17;8.40;;;26.30;50.00;;;;;;4991554;28;20437;-75
2023/07/05 04:20:40;;;;;;;11.00;8.17;;;26.30;49.90;;;;;;4991877;28;20432;-75
2023/07/05 04:23:08;;;;;;;12.53;8.17;;;26.20;50.00;;;;;;4991269;28;20484;-76
2023/07/05 04:25:36;;;;;;;12.50;9.03;;;26.20;49.90;;;;;;4990730;28;20475;-76
2023/07/05 04:28:05;;;;;;;10.37;8.50;;;26.20;50.00;;;;;;4988127;28;20576;-76
2023/07/05 04:30:33;;;;;;;10.57;8.30;;;26.20;50.00;;;;;;4991405;28;20448;-76
2023/07/05 04:33:01;;;;;;;10.13;8.43;;;26.20;50.00;;;;;;4991168;28;20560;-76
2023/07/05 04:35:29;;;;;;;11.40;8.67;;;26.20;49.90;;;;;;4986131;28;20443;-75
2023/07/05 04:37:57;;;;;;;16.50;9.53;;;26.20;50.00;;;;;;4991054;28;20500;-76
2023/07/05 04:40:24;;;;;;;11.33;9.00;;;26.20;50.00;;;;;;4985505;28;20527;-75
2023/07/05 04:42:52;;;;;;;9.50;8.30;;;26.20;50.70;;;;;;4994888;28;20524;-75
2023/07/05 04:45:21;;;;;;;12.07;8.97;;;26.20;50.30;;;;;;4988082;28;21076;-76
2023/07/05 04:47:49;;;;;;;12.40;8.40;;;26.20;50.20;;;;;;4994956;28;20522;-76
2023/07/05 04:50:17;;;;;;;9.53;7.80;;;26.20;50.20;;;;;;4994806;28;20452;-75
2023/07/05 04:52:45;;;;;;;9.70;7.77;;;26.20;50.00;;;;;;4994485;28;20473;-75
2023/07/05 04:55:13;;;;;;;13.03;8.73;;;26.20;50.00;;;;;;4994552;28;20544;-75
2023/07/05 04:57:41;;;;;;;13.10;9.07;;;26.20;50.10;;;;;;4994875;28;20524;-75
2023/07/05 05:00:11;;;;;;;9.47;8.30;;;26.20;50.10;;;;;;5002365;28;20465;-75
2023/07/05 05:02:40;;;;;;;10.73;8.63;;;26.20;50.00;;;;;;4994533;28;20472;-75
2023/07/05 05:05:08;;;;;;;12.47;8.90;;;26.20;50.10;;;;;;4984527;28;20451;-75
2023/07/05 05:07:37;;;;;;;11.63;8.23;;;26.20;50.10;;;;;;4994397;28;20960;-75
2023/07/05 05:10:05;;;;;;;9.87;8.70;;;26.20;49.90;;;;;;5002420;28;20528;-75
2023/07/05 05:12:33;;;;;;;11.00;8.60;;;26.20;50.00;;;;;;4994388;28;20490;-75
2023/07/05 05:15:00;;;;;;;10.47;8.73;;;26.20;50.00;;;;;;4990009;28;20453;-75
2023/07/05 05:17:29;;;;;;;9.37;8.37;;;26.20;49.90;;;;;;4994499;28;20528;-75
2023/07/05 05:19:58;;;;;;;14.03;9.57;;;26.20;50.00;;;;;;4989858;28;20431;-76
2023/07/05 05:22:26;;;;;;;11.67;8.50;;;26.20;50.00;;;;;;4993001;28;20450;-75
2023/07/05 05:24:54;;;;;;;11.23;8.33;;;26.30;49.80;;;;;;4998465;28;20482;-75
2023/07/05 05:27:22;;;;;;;9.20;7.90;;;26.30;49.80;;;;;;4991049;28;20454;-75
2023/07/05 05:29:49;;;;;;;9.10;8.10;;;26.30;49.70;;;;;;4987236;28;20437;-75
2023/07/05 05:32:17;;;;;;;11.57;8.50;;;26.20;49.90;;;;;;4994099;28;20539;-75
2023/07/05 05:34:46;;;;;;;10.27;8.50;;;26.20;49.90;;;;;;4988034;28;20458;-74
2023/07/05 05:37:15;;;;;;;9.47;7.60;;;26.20;49.90;;;;;;4986655;28;20511;-75
2023/07/05 05:39:42;;;;;;;10.43;8.10;;;26.20;50.00;;;;;;4992489;28;20477;-75
2023/07/05 05:42:12;;;;;;;9.80;7.87;;;26.20;49.80;;;;;;4993937;28;20442;-75
2023/07/05 05:44:40;;;;;;;11.60;7.27;;;26.20;49.80;;;;;;4993895;28;20960;-75
2023/07/05 05:47:08;;;;;;;8.20;7.30;;;26.20;49.90;;;;;;4993436;28;20473;-75
2023/07/05 05:49:36;;;;;;;9.63;7.40;;;26.20;49.80;;;;;;4993923;28;20428;-75
2023/07/05 05:52:05;;;;;;;7.77;6.50;;;26.20;50.00;;;;;;4992988;28;21047;-75
2023/07/05 05:54:35;;;;;;;9.53;7.50;;;26.20;50.00;;;;;;4993467;28;20447;-75
2023/07/05 05:57:03;;;;;;;8.03;7.20;;;26.20;50.00;;;;;;4981726;28;20479;-76
2023/07/05 05:59:31;;;;;;;7.57;6.87;;;26.20;49.90;;;;;;4983591;28;20445;-75
2023/07/05 06:01:58;;;;;;;7.33;6.23;;;26.30;49.90;;;;;;4993087;28;20946;-75
2023/07/05 06:04:27;;;;;;;9.23;7.13;;;26.30;49.90;;;;;;4993281;28;20445;-75
2023/07/05 06:06:54;;;;;;;9.10;7.07;;;26.30;49.90;;;;;;4993147;28;20419;-75
2023/07/05 06:09:22;;;;;;;15.83;6.33;;;26.40;50.00;;;;;;4992928;28;20532;-76
2023/07/05 06:11:51;;;;;;;8.23;6.40;;;26.30;49.80;;;;;;4993475;28;20524;-75
2023/07/05 06:14:19;;;;;;;7.23;6.50;;;26.40;49.90;;;;;;4989720;28;20568;-75
2023/07/05 06:16:47;;;;;;;9.07;6.50;;;26.40;50.00;;;;;;4991228;28;20451;-75
2023/07/05 06:19:14;;;;;;;8.07;6.17;;;26.40;50.10;;;;;;4993193;28;20519;-75
2023/07/05 06:21:42;;;;;;;6.37;5.70;;;26.40;49.90;;;;;;5001116;28;20421;-75
2023/07/05 06:24:11;;;;;;;6.87;6.17;;;26.40;50.00;;;;;;4993130;28;20472;-75
2023/07/05 06:26:38;;;;;;;6.70;5.40;;;26.40;49.80;;;;;;4992918;28;20495;-75
2023/07/05 06:29:08;;;;;;;5.57;4.87;;;26.40;50.00;;;;;;4993039;28;20528;-75
2023/07/05 06:31:36;;;;;;;6.30;5.70;;;26.40;50.10;;;;;;4993082;28;20507;-75
2023/07/05 06:34:04;;;;;;;6.83;5.70;;;26.40;49.90;;;;;;4982007;28;20506;-75
2023/07/05 06:36:32;;;;;;;6.10;5.10;;;26.40;49.80;;;;;;4983964;28;20475;-75
2023/07/05 06:39:00;;;;;;;5.90;5.40;;;26.30;49.80;;;;;;4983011;28;20444;-76
2023/07/05 06:41:28;;;;;;;5.20;4.67;;;26.40;49.60;;;;;;4992578;28;20492;-76
2023/07/05 06:43:56;;;;;;;4.03;3.17;;;26.40;49.70;;;;;;4981422;28;20539;-77
2023/07/05 06:46:25;;;;;;;3.03;2.73;;;24.50;48.50;;;;;;4979563;28;20527;-76
2023/07/05 06:48:52;;;;;;;4.00;2.43;;;22.40;53.60;;;;;;4975956;28;20430;-78
2023/07/05 06:51:20;;;;;;;4.27;2.70;;;20.80;55.60;;;;;;4973695;28;20556;-78
2023/07/05 06:53:48;;;;;;;5.53;2.97;;;20.20;57.80;;;;;;4983319;28;20556;-77
2023/07/05 06:56:16;;;;;;;4.50;2.80;;;19.90;59.40;;;;;;4988358;28;20469;-78
2023/07/05 06:58:45;;;;;;;3.40;3.00;;;19.70;59.50;;;;;;4991155;28;20440;-77
2023/07/05 07:01:12;;;;;;;3.23;2.93;;;19.30;60.80;;;;;;4989944;28;20521;-76
2023/07/05 07:03:42;;;;;;;3.63;3.23;;;19.20;62.40;;;;;;4992460;28;20431;-76
2023/07/05 07:06:10;;;;;;;8.40;3.37;;;19.50;62.90;;;;;;5000486;28;20560;-76
2023/07/05 07:08:39;;;;;;;3.27;2.80;;;19.90;61.80;;;;;;4977444;28;20465;-77
2023/07/05 07:11:07;;;;;;;7.63;2.93;;;19.80;62.30;;;;;;4997460;28;20528;-77
2023/07/05 07:13:35;;;;;;;4.47;3.30;;;19.60;61.80;;;;;;4991070;28;20564;-77
2023/07/05 07:16:06;;;;;;;4.43;2.93;;;19.40;61.60;;;;;;4990531;28;20500;-77
2023/07/05 07:18:36;;;;;;;4.80;3.27;;;19.40;62.30;;;;;;4991200;28;20449;-76
2023/07/05 07:21:06;;;;;;;5.67;3.17;;;19.30;62.80;;;;;;4995044;28;20463;-76
2023/07/05 07:23:34;;;;;;;6.57;3.67;;;19.10;63.80;;;;;;4984673;28;20484;-76
2023/07/05 07:26:04;;;;;;;7.40;3.40;;;18.70;65.40;;;;;;4985355;28;20489;-76
2023/07/05 07:28:32;;;;;;;5.07;3.33;;;18.40;65.50;;;;;;4975571;28;20456;-76
2023/07/05 07:31:08;;;;;;;5.40;3.30;;;18.80;66.90;;;;;;4986823;28;20449;-76
2023/07/05 07:33:36;;;;;;;7.07;3.17;;;19.20;65.80;;;;;;4990434;28;20556;-76
2023/07/05 07:36:10;;;;;;;22.53;3.93;;;19.40;65.60;;;;;;4988110;28;20484;-77
2023/07/05 07:38:38;;;;;;;5.20;3.80;;;19.60;62.80;;;;;;4975266;28;20433;-78
2023/07/05 07:41:12;;;;;;;8.47;3.50;;;19.90;61.70;;;;;;4982626;28;20537;-76
2023/07/05 07:43:40;;;;;;;6.77;3.60;;;20.20;60.60;;;;;;4982010;28;20500;-76
2023/07/05 07:46:09;;;;;;;4.67;3.33;;;19.90;60.40;;;;;;4982118;28;20481;-76
2023/07/05 07:48:38;;;;;;;8.53;3.00;;;19.40;60.20;;;;;;4991986;28;20441;-77
2023/07/05 07:51:06;;;;;;;3.50;3.20;;;19.50;61.00;;;;;;4988713;28;20472;-78
2023/07/05 07:53:35;;;;;;;7.10;3.50;;;19.30;60.30;;;;;;4995527;28;20505;-79
2023/07/05 07:56:10;;;;;;;3.87;3.00;;;19.30;60.80;;;;;;4988678;28;20453;-78
2023/07/05 07:58:38;;;;;;;4.33;2.93;;;19.70;61.50;;;;;;4993952;28;20969;-79
2023/07/05 08:01:13;;;;;;;6.03;3.13;;;19.90;60.10;;;;;;4975643;28;20485;-73
2023/07/05 08:03:41;;;;;;;5.07;2.83;;;20.60;62.90;;;;;;4987363;28;20457;-76
2023/07/05 08:06:09;;;;;;;14.80;2.70;;;21.90;61.20;;;;;;4977089;28;20436;-75
2023/07/05 08:08:39;;;;;;;3.47;3.17;;;22.80;59.20;;;;;;4981119;28;20603;-76
2023/07/05 08:11:08;;;;;;;6.30;2.80;;;23.60;57.40;;;;;;4982856;28;20449;-75
2023/07/05 08:13:36;;;;;;;11.07;2.77;;;24.20;56.30;;;;;;4986593;28;20529;-75
2023/07/05 08:16:04;;;;;;;3.10;2.80;;;24.70;55.10;;;;;;4988592;28;20458;-77
2023/07/05 08:18:32;;;;;;;5.30;2.80;;;25.10;54.40;;;;;;4976080;28;20512;-76
2023/07/05 08:21:00;;;;;;;5.40;3.00;;;25.50;53.80;;;;;;4985191;28;20409;-76
2023/07/05 08:23:28;;;;;;;3.40;3.10;;;25.70;52.90;;;;;;4980855;28;20491;-77
2023/07/05 08:26:01;;;;;;;5.20;3.20;;;25.80;52.00;;;;;;4981820;28;20539;-76
2023/07/05 08:28:29;;;;;;;3.90;3.47;;;26.00;51.70;;;;;;4975982;28;20443;-76
2023/07/05 08:30:57;;;;;;;10.60;3.00;;;26.10;51.50;;;;;;4986551;28;20435;-76
2023/07/05 08:33:26;;;;;;;11.73;3.20;;;26.20;51.40;;;;;;4981910;28;20539;-77
2023/07/05 08:36:07;;;;;;;10.53;2.73;;;26.40;51.20;;;;;;4983389;28;20463;-77
2023/07/05 08:38:35;;;;;;;5.37;2.30;;;26.60;50.90;;;;;;4981827;28;20413;-77
2023/07/05 08:41:06;;;;;;;7.50;2.30;;;26.80;50.50;;;;;;4984722;28;20533;-76
2023/07/05 08:43:37;;;;;;;3.00;2.70;;;27.00;49.70;;;;;;4982769;28;20798;-78
2023/07/05 08:46:06;;;;;;;3.57;2.63;;;27.00;49.20;;;;;;4986639;28;20451;-75
2023/07/05 08:48:34;;;;;;;11.83;2.63;;;27.10;48.80;;;;;;4989168;28;20497;-75
2023/07/05 08:51:02;;;;;;;9.67;2.87;;;27.00;48.60;;;;;;4991499;28;20461;-75
2023/07/05 08:53:47;;;;;;;10.50;3.10;;;27.20;48.40;;;;;;4990846;28;20823;-75
2023/07/05 08:56:20;;;;;;;10.63;2.60;;;27.50;48.20;;;;;;4994293;28;20548;-78
2023/07/05 08:58:51;;;;;;;7.80;2.80;;;27.50;47.30;;;;;;4994671;28;20445;-77
2023/07/05 09:01:22;;;;;;;6.07;3.00;;;27.60;47.30;;;;;;4985980;28;20434;-77
2023/07/05 09:03:50;;;;;;;3.43;2.40;;;27.60;46.20;;;;;;4984962;28;20424;-78
2023/07/05 09:06:22;;;;;;;5.93;2.70;;;27.50;46.20;;;;;;4979462;28;20479;-76
2023/07/05 09:09:01;;;;;;;9.93;2.50;;;27.40;46.10;;;;;;4988367;28;20937;-76
2023/07/05 09:11:36;;;;;;;5.27;2.30;;;27.40;46.00;;;;;;4985375;28;20806;-79
2023/07/05 09:14:11;;;;;;;3.53;2.63;;;27.40;46.20;;;;;;4991326;28;20471;-77
2023/07/05 09:16:42;;;;;;;4.43;2.33;;;27.50;46.30;;;;;;4990198;28;20992;-77
2023/07/05 09:19:18;;;;;;;7.13;2.33;;;27.70;46.30;;;;;;4991271;28;20448;-79
2023/07/05 09:21:46;;;;;;;5.33;2.30;;;27.70;45.60;;;;;;4986512;28;20482;-78
2023/07/05 09:24:18;;;;;;;3.27;2.70;;;27.80;45.50;;;;;;4989379;28;20460;-79
2023/07/05 09:26:51;;;;;;;3.70;2.23;;;27.80;45.40;;;;;;4991294;28;20524;-76
2023/07/05 09:29:27;;;;;;;5.60;2.23;;;27.80;45.40;;;;;;4988477;28;20508;-77
2023/07/05 09:31:55;;;;;;;4.07;2.10;;;27.70;45.30;;;;;;4982050;28;20484;-77
2023/07/05 09:34:27;;;;;;;4.17;2.53;;;27.60;45.30;;;;;;4982592;28;20483;-79
2023/07/05 09:36:55;;;;;;;3.30;2.00;;;27.50;45.40;;;;;;4983881;28;20503;-77
2023/07/05 09:39:28;;;;;;;2.70;2.10;;;27.50;45.60;;;;;;4990763;28;20520;-77
2023/07/05 09:41:59;;;;;;;4.73;1.90;;;27.50;45.70;;;;;;4990562;28;20466;-78
2023/07/05 09:44:27;;;;;;;2.87;2.67;;;27.40;45.70;;;;;;4988909;28;20416;-76
2023/07/05 09:46:55;;;;;;;2.73;2.53;;;27.40;45.80;;;;;;4990232;28;20446;-76
2023/07/05 09:49:23;;;;;;;5.53;2.37;;;27.50;45.70;;;;;;5003021;28;20424;-78
2023/07/05 09:51:51;;;;;;;2.23;2.07;;;27.50;45.40;;;;;;5001251;28;20464;-78
2023/07/05 09:54:22;;;;;;;5.70;2.43;;;27.50;45.00;;;;;;4998383;28;20568;-77
2023/07/05 09:56:59;;;;;;;7.27;2.20;;;27.40;45.10;;;;;;4996860;28;20446;-77
2023/07/05 09:59:27;;;;;;;2.37;2.13;;;27.40;45.20;;;;;;4990955;28;20423;-76
2023/07/05 10:01:56;;;;;;;3.53;1.90;;;27.30;45.00;;;;;;4984010;28;20444;-77
2023/07/05 10:04:27;;;;;;;2.73;1.93;;;27.20;45.10;;;;;;4987298;28;20456;-77
2023/07/05 10:06:55;;;;;;;2.60;1.97;;;27.20;45.10;;;;;;4982388;28;20437;-76
2023/07/05 10:09:24;;;;;;;2.73;1.80;;;27.20;45.00;;;;;;4993368;28;20474;-77
2023/07/05 10:11:53;;;;;;;1.60;1.50;;;27.20;44.80;;;;;;4993309;28;20478;-77
2023/07/05 10:14:27;;;;;;;2.60;1.50;;;27.20;44.50;;;;;;4985395;28;20466;-77
2023/07/05 10:16:56;;;;;;;3.73;1.80;;;27.20;44.40;;;;;;5001226;28;20533;-77
2023/07/05 10:19:29;;;;;;;5.03;1.40;;;27.10;44.50;;;;;;4993588;28;20443;-77
2023/07/05 10:22:06;;;;;;;6.33;1.90;;;27.00;44.70;;;;;;4985649;28;20412;-77
2023/07/05 10:24:43;;;;;;;2.50;1.77;;;26.90;44.80;;;;;;4991829;28;20529;-77
2023/07/05 10:27:19;;;;;;;12.50;2.47;;;26.80;45.00;;;;;;4992627;28;20440;-77
2023/07/05 10:29:49;;;;;;;9.07;2.00;;;26.80;45.00;;;;;;4990593;28;20451;-77
2023/07/05 10:32:18;;;;;;;3.93;1.73;;;26.70;45.30;;;;;;4992018;28;20412;-77
2023/07/05 10:34:49;;;;;;;6.77;1.80;;;26.70;45.10;;;;;;4990382;28;20485;-77
2023/07/05 10:37:31;;;;;;;6.40;1.80;;;26.60;45.10;;;;;;4992647;28;20437;-77
2023/07/05 10:40:00;;;;;;;3.77;1.77;;;26.50;45.50;;;;;;4983070;28;20451;-77
2023/07/05 10:42:28;;;;;;;4.20;1.30;;;26.40;45.40;;;;;;4993128;28;20468;-77
2023/07/05 10:44:57;;;;;;;2.87;1.73;;;26.30;45.70;;;;;;4992672;28;20515;-78
2023/07/05 10:47:25;;;;;;;4.90;1.37;;;26.30;45.70;;;;;;4991518;28;20487;-77
2023/07/05 10:49:53;;;;;;;4.20;1.60;;;26.30;45.80;;;;;;4984186;28;20432;-77
2023/07/05 10:52:22;;;;;;;1.93;1.20;;;26.30;45.80;;;;;;4992841;28;20502;-75
2023/07/05 10:54:59;;;;;;;2.87;1.40;;;26.20;45.70;;;;;;4989693;28;20539;-77
2023/07/05 10:57:28;;;;;;;4.00;1.50;;;26.20;45.90;;;;;;4992993;28;20441;-77
2023/07/05 11:00:01;;;;;;;2.10;1.60;;;26.30;45.90;;;;;;4991738;28;20427;-77
2023/07/05 11:02:36;;;;;;;1.73;1.43;;;26.40;45.60;;;;;;4991022;28;20437;-75
2023/07/05 11:05:04;;;;;;;7.30;1.70;;;26.30;45.50;;;;;;4979281;28;20480;-74
2023/07/05 11:07:33;;;;;;;1.40;1.30;;;26.40;45.50;;;;;;4992345;28;20412;-76
2023/07/05 11:10:01;;;;;;;5.20;2.00;;;26.40;45.20;;;;;;4990268;28;20415;-76
2023/07/05 11:12:29;;;;;;;1.40;1.30;;;26.50;45.40;;;;;;4992355;28;20468;-74
2023/07/05 11:15:00;;;;;;;6.90;1.50;;;26.50;45.10;;;;;;4991689;28;20500;-75
2023/07/05 11:17:32;;;;;;;1.50;1.40;;;26.50;44.90;;;;;;4989322;28;20453;-76
2023/07/05 11:20:00;;;;;;;2.90;1.07;;;26.50;44.90;;;;;;4990401;28;20433;-76
2023/07/05 11:22:37;;;;;;;1.40;1.23;;;26.40;44.70;;;;;;4987217;28;20455;-77
2023/07/05 11:25:11;;;;;;;3.90;1.43;;;26.30;45.50;;;;;;4988867;28;20472;-77
2023/07/05 11:27:51;;;;;;;3.63;1.17;;;26.30;44.80;;;;;;4992261;28;20511;-76
2023/07/05 11:30:39;;;;;;;4.67;1.30;;;26.20;44.80;;;;;;4987652;28;20443;-76
2023/07/05 11:33:22;;;;;;;5.53;1.10;;;26.10;44.90;;;;;;4988157;28;20424;-77
2023/07/05 11:35:52;;;;;;;7.40;1.30;;;26.10;45.00;;;;;;4998601;28;20951;-79
2023/07/05 11:38:54;;;;;;;6.93;1.23;;;26.00;45.20;;;;;;4978595;28;20442;-76
2023/07/05 11:41:30;;;;;;;2.00;1.37;;;26.00;45.10;;;;;;4990878;28;20466;-77
2023/07/05 11:44:00;;;;;;;3.47;1.10;;;25.90;45.10;;;;;;5002241;28;20420;-77
2023/07/05 11:46:40;;;;;;;3.43;1.27;;;25.80;44.90;;;;;;5002425;28;20458;-76
2023/07/05 11:49:30;;;;;;;2.20;1.50;;;25.80;45.40;;;;;;4983285;28;20416;-77
2023/07/05 11:52:01;;;;;;;1.63;1.53;;;25.80;45.20;;;;;;4988593;28;20437;-76
2023/07/05 11:54:38;;;;;;;9.33;2.27;;;25.80;45.10;;;;;;4990085;28;20445;-75
2023/07/05 11:57:09;;;;;;;5.23;2.03;;;25.70;46.40;;;;;;4991337;28;20564;-78
2023/07/05 11:59:39;;;;;;;7.43;2.03;;;25.90;47.00;;;;;;4995156;28;20419;-76
2023/07/05 12:02:14;;;;;;;4.67;1.80;;;25.90;46.70;;;;;;4982873;28;20462;-77
2023/07/05 12:04:42;;;;;;;4.60;1.60;;;25.90;46.80;;;;;;4988008;28;20531;-76
2023/07/05 12:07:10;;;;;;;5.53;1.70;;;25.90;46.50;;;;;;4987488;28;20407;-77
2023/07/05 12:09:38;;;;;;;5.23;1.60;;;25.80;46.50;;;;;;5000000;28;20415;-76
2023/07/05 12:12:12;;;;;;;6.53;1.87;;;25.80;46.80;;;;;;4995590;28;20449;-75
2023/07/05 12:14:39;;;;;;;3.33;1.70;;;25.70;46.60;;;;;;4987052;28;20507;-76
2023/07/05 12:17:13;;;;;;;3.23;1.50;;;25.60;46.60;;;;;;4991087;28;20444;-77
2023/07/05 12:19:40;;;;;;;7.57;1.67;;;25.60;46.70;;;;;;4990969;28;20461;-78
2023/07/05 12:22:18;;;;;;;2.70;1.87;;;25.50;46.70;;;;;;4985547;28;20543;-77
2023/07/05 12:24:47;;;;;;;3.73;1.90;;;25.50;46.80;;;;;;4994048;28;20451;-77
2023/07/05 12:27:20;;;;;;;4.13;2.00;;;25.50;46.70;;;;;;4991887;28;20442;-78
2023/07/05 12:29:50;;;;;;;7.50;1.57;;;25.40;46.70;;;;;;4986322;28;20432;-76
2023/07/05 12:32:20;;;;;;;6.30;1.70;;;25.40;46.50;;;;;;4991410;28;20480;-77
2023/07/05 12:34:48;;;;;;;9.83;1.33;;;25.40;46.80;;;;;;4997718;28;20431;-77
2023/07/05 12:37:30;;;;;;;10.50;1.70;;;25.40;47.50;;;;;;4991386;28;20531;-78
2023/07/05 12:40:12;;;;;;;4.50;1.60;;;25.40;46.70;;;;;;4987604;28;20507;-77
2023/07/05 12:42:48;;;;;;;5.47;1.67;;;25.50;46.70;;;;;;4980944;28;20486;-78
2023/07/05 12:45:17;;;;;;;3.33;1.57;;;25.50;46.70;;;;;;4980365;28;20907;-75
2023/07/05 12:47:46;;;;;;;4.13;1.63;;;25.50;46.50;;;;;;4983924;28;20510;-75
2023/07/05 12:50:19;;;;;;;6.10;1.77;;;25.60;46.70;;;;;;4983405;28;20417;-76
2023/07/05 12:53:02;;;;;;;3.23;1.40;;;25.60;46.60;;;;;;4988107;28;20455;-76
2023/07/05 12:55:31;;;;;;;3.70;1.93;;;25.60;46.60;;;;;;4982993;28;20494;-76
2023/07/05 12:57:58;;;;;;;3.30;1.63;;;25.40;46.50;;;;;;4980806;28;20560;-75
2023/07/05 13:00:26;;;;;;;3.70;1.50;;;25.40;47.30;;;;;;4984763;28;20424;-76
2023/07/05 13:03:00;;;;;;;6.23;1.47;;;25.30;47.10;;;;;;4985250;28;20446;-76
2023/07/05 13:05:29;;;;;;;1.43;1.33;;;25.20;47.60;;;;;;4992106;28;20432;-75
2023/07/05 13:07:59;;;;;;;10.67;1.57;;;25.20;47.60;;;;;;4993948;28;20433;-76